createdAt,value
2023-06-13T00:01:38.146Z,22.05
2023-06-13T00:04:08.186Z,22.06
2023-06-13T00:06:39.032Z,22.10
2023-06-13T00:09:07.799Z,21.97
2023-06-13T00:11:35.672Z,21.93
2023-06-13T00:14:04.984Z,21.93
2023-06-13T00:16:33.789Z,21.92
2023-06-13T00:19:03.138Z,21.79
2023-06-13T00:21:31.149Z,21.85
2023-06-13T00:23:59.851Z,21.90
2023-06-13T00:26:27.777Z,21.88
2023-06-13T00:28:56.925Z,21.95
2023-06-13T00:31:30.528Z,21.93
2023-06-13T00:34:00.296Z,21.92
2023-06-13T00:36:30.496Z,21.90
2023-06-13T00:38:59.508Z,21.92
2023-06-13T00:41:27.918Z,21.87
2023-06-13T00:43:56.228Z,21.90
2023-06-13T00:46:34.427Z,21.98
2023-06-13T00:49:30.175Z,22.01
2023-06-13T00:52:08.106Z,21.96
2023-06-13T00:54:39.366Z,21.95
2023-06-13T00:57:09.653Z,21.92
2023-06-13T00:59:38.023Z,21.93
2023-06-13T01:02:06.250Z,21.93
2023-06-13T01:04:37.055Z,21.92
2023-06-13T01:07:12.472Z,21.87
2023-06-13T01:09:48.726Z,21.89
2023-06-13T01:12:30.549Z,21.90
2023-06-13T01:15:09.942Z,21.91
2023-06-13T01:17:43.538Z,21.91
2023-06-13T01:20:18.514Z,21.92
2023-06-13T01:23:07.922Z,21.95
2023-06-13T01:25:58.565Z,21.91
2023-06-13T01:28:28.252Z,21.94
2023-06-13T01:30:59.673Z,21.98
2023-06-13T01:33:29.394Z,21.96
2023-06-13T01:36:02.337Z,22.05
2023-06-13T01:38:32.179Z,22.05
2023-06-13T01:41:01.676Z,22.10
2023-06-13T01:43:32.566Z,22.13
2023-06-13T01:46:30.050Z,22.15
2023-06-13T01:49:01.229Z,22.17
2023-06-13T01:51:40.239Z,22.23
2023-06-13T01:54:12.542Z,22.37
2023-06-13T01:56:43.724Z,22.42
2023-06-13T01:59:13.521Z,22.42
2023-06-13T02:01:44.313Z,22.46
2023-06-13T02:04:12.874Z,22.55
2023-06-13T02:06:41.119Z,22.57
2023-06-13T02:09:09.050Z,22.61
2023-06-13T02:11:37.383Z,22.60
2023-06-13T02:14:05.392Z,22.64
2023-06-13T02:16:34.338Z,22.61
2023-06-13T02:19:03.084Z,22.80
2023-06-13T02:21:51.211Z,22.75
2023-06-13T02:24:20.108Z,22.62
2023-06-13T02:26:49.645Z,22.78
2023-06-13T02:29:19.834Z,23.12
2023-06-13T02:31:48.481Z,23.47
2023-06-13T02:34:16.858Z,23.67
2023-06-13T02:36:45.224Z,23.56
2023-06-13T02:39:13.530Z,23.51
2023-06-13T02:41:46.934Z,23.35
2023-06-13T02:44:14.963Z,23.38
2023-06-13T02:46:43.482Z,23.41
2023-06-13T02:49:11.430Z,23.39
2023-06-13T02:51:39.830Z,23.63
2023-06-13T02:54:08.816Z,23.88
2023-06-13T02:56:37.990Z,24.20
2023-06-13T02:59:06.557Z,24.32
2023-06-13T03:01:35.368Z,24.05
2023-06-13T03:04:09.629Z,24.00
2023-06-13T03:06:42.566Z,24.19
2023-06-13T03:09:13.337Z,24.22
2023-06-13T03:11:41.695Z,24.35
2023-06-13T03:14:10.024Z,24.50
2023-06-13T03:16:38.589Z,24.73
2023-06-13T03:19:07.034Z,24.70
2023-06-13T03:21:37.179Z,24.87
2023-06-13T03:24:06.301Z,25.12
2023-06-13T03:26:39.456Z,25.21
2023-06-13T03:29:11.384Z,25.41
2023-06-13T03:31:40.162Z,25.52
2023-06-13T03:34:08.722Z,25.57
2023-06-13T03:36:40.325Z,25.79
2023-06-13T03:39:08.954Z,25.97
2023-06-13T03:41:37.664Z,25.75
2023-06-13T03:44:05.850Z,25.88
2023-06-13T03:46:34.530Z,25.99
2023-06-13T03:49:02.599Z,26.02
2023-06-13T03:51:31.487Z,25.79
2023-06-13T03:53:59.769Z,25.73
2023-06-13T03:56:28.364Z,25.74
2023-06-13T03:58:57.023Z,25.83
2023-06-13T04:01:25.902Z,26.01
2023-06-13T04:03:53.937Z,26.18
2023-06-13T04:06:23.440Z,26.19
2023-06-13T04:08:51.754Z,26.34
2023-06-13T04:11:20.226Z,25.98
2023-06-13T04:13:48.203Z,26.09
2023-06-13T04:16:16.502Z,25.84
2023-06-13T04:18:45.832Z,25.84
2023-06-13T04:21:14.286Z,26.03
2023-06-13T04:23:42.629Z,26.11
2023-06-13T04:26:13.351Z,26.21
2023-06-13T04:28:42.053Z,26.43
2023-06-13T04:31:12.018Z,26.45
2023-06-13T04:33:41.225Z,26.45
2023-06-13T04:36:10.192Z,26.38
2023-06-13T04:38:40.860Z,26.54
2023-06-13T04:41:14.684Z,26.60
2023-06-13T04:43:42.783Z,26.80
2023-06-13T04:46:12.552Z,26.79
2023-06-13T04:48:40.558Z,26.64
2023-06-13T04:51:12.719Z,26.64
2023-06-13T04:53:42.595Z,26.55
2023-06-13T04:56:11.122Z,26.45
2023-06-13T04:58:39.259Z,26.43
2023-06-13T05:01:09.364Z,26.40
2023-06-13T05:03:39.213Z,26.30
2023-06-13T05:06:07.721Z,26.22
2023-06-13T05:08:36.070Z,26.23
2023-06-13T05:11:04.337Z,26.31
2023-06-13T05:13:32.318Z,26.62
2023-06-13T05:16:00.707Z,26.70
2023-06-13T05:18:31.314Z,26.77
2023-06-13T05:21:00.773Z,26.86
2023-06-13T05:23:29.862Z,27.00
2023-06-13T05:25:58.200Z,27.07
2023-06-13T05:28:26.146Z,27.07
2023-06-13T05:30:54.592Z,27.16
2023-06-13T05:33:23.000Z,27.24
2023-06-13T05:35:57.138Z,27.13
2023-06-13T05:38:26.679Z,27.25
2023-06-13T05:40:55.128Z,27.21
2023-06-13T05:43:23.346Z,27.30
2023-06-13T05:45:51.993Z,27.32
2023-06-13T05:48:20.006Z,27.41
2023-06-13T05:50:48.600Z,27.41
2023-06-13T05:53:16.616Z,27.44
2023-06-13T05:55:45.797Z,27.50
2023-06-13T05:58:13.982Z,27.36
2023-06-13T06:00:42.450Z,27.38
2023-06-13T06:03:10.797Z,27.36
2023-06-13T06:05:39.414Z,27.42
2023-06-13T06:08:07.445Z,27.34
2023-06-13T06:10:36.971Z,27.44
2023-06-13T06:13:07.176Z,27.49
2023-06-13T06:15:55.707Z,27.46
2023-06-13T06:18:24.491Z,27.38
2023-06-13T06:20:53.085Z,27.23
2023-06-13T06:23:21.156Z,27.15
2023-06-13T06:25:49.434Z,27.26
2023-06-13T06:28:17.493Z,27.36
2023-06-13T06:30:45.918Z,27.38
2023-06-13T06:33:13.946Z,27.47
2023-06-13T06:35:42.414Z,27.50
2023-06-13T06:38:11.133Z,27.53
2023-06-13T06:40:39.579Z,27.65
2023-06-13T06:43:07.693Z,27.55
2023-06-13T06:45:38.069Z,27.52
2023-06-13T06:48:06.461Z,27.56
2023-06-13T06:50:34.803Z,27.59
2023-06-13T06:53:02.919Z,27.61
2023-06-13T06:55:32.055Z,27.58
2023-06-13T06:58:00.097Z,27.54
2023-06-13T07:00:31.238Z,27.57
2023-06-13T07:02:59.779Z,27.66
2023-06-13T07:05:30.088Z,27.71
2023-06-13T07:07:58.205Z,27.71
2023-06-13T07:10:27.818Z,27.67
2023-06-13T07:12:55.886Z,27.73
2023-06-13T07:15:24.628Z,27.81
2023-06-13T07:17:53.446Z,27.74
2023-06-13T07:20:22.115Z,27.71
2023-06-13T07:22:50.208Z,27.81
2023-06-13T07:25:18.560Z,27.80
2023-06-13T07:27:47.490Z,27.90
2023-06-13T07:30:16.254Z,27.90
2023-06-13T07:32:44.443Z,27.86
2023-06-13T07:35:18.386Z,27.89
2023-06-13T07:37:46.423Z,27.94
2023-06-13T07:40:15.264Z,27.92
2023-06-13T07:42:43.509Z,27.89
2023-06-13T07:45:12.005Z,27.95
2023-06-13T07:47:40.099Z,27.94
2023-06-13T07:50:09.304Z,28.06
2023-06-13T07:52:37.531Z,28.15
2023-06-13T07:55:06.317Z,28.19
2023-06-13T07:57:53.703Z,28.18
2023-06-13T08:00:24.891Z,28.20
2023-06-13T08:02:52.949Z,28.26
2023-06-13T08:05:21.776Z,28.30
2023-06-13T08:07:49.860Z,28.29
2023-06-13T08:10:18.434Z,28.34
2023-06-13T08:12:49.042Z,28.35
2023-06-13T08:15:17.474Z,28.39
2023-06-13T08:17:45.479Z,28.36
2023-06-13T08:20:13.942Z,28.41
2023-06-13T08:22:42.656Z,28.35
2023-06-13T08:25:11.409Z,28.43
2023-06-13T08:27:44.903Z,28.43
2023-06-13T08:30:15.684Z,28.48
2023-06-13T08:32:44.391Z,28.59
2023-06-13T08:35:15.358Z,28.62
2023-06-13T08:37:43.647Z,28.74
2023-06-13T08:40:13.634Z,28.76
2023-06-13T08:42:41.934Z,28.78
2023-06-13T08:45:10.822Z,28.77
2023-06-13T08:47:39.909Z,28.82
2023-06-13T08:50:08.968Z,28.90
2023-06-13T08:52:42.182Z,28.95
2023-06-13T08:55:53.828Z,28.93
2023-06-13T08:58:09.001Z,29.02
2023-06-13T09:00:38.123Z,29.15
2023-06-13T09:03:10.921Z,29.22
2023-06-13T09:05:40.357Z,29.29
2023-06-13T09:08:28.657Z,29.33
2023-06-13T09:10:59.757Z,29.48
2023-06-13T09:13:30.572Z,29.44
2023-06-13T09:15:59.426Z,29.47
2023-06-13T09:18:29.019Z,29.48
2023-06-13T09:20:58.644Z,29.47
2023-06-13T09:23:27.826Z,29.49
2023-06-13T09:25:58.296Z,29.50
2023-06-13T09:28:34.301Z,29.61
2023-06-13T09:31:02.694Z,29.68
2023-06-13T09:33:30.862Z,29.61
2023-06-13T09:38:49.601Z,29.88
2023-06-13T09:41:21.271Z,29.94
2023-06-13T09:43:53.979Z,29.96
2023-06-13T09:46:26.084Z,29.99
2023-06-13T09:48:54.389Z,29.98
2023-06-13T09:51:23.633Z,29.88
2023-06-13T09:53:51.871Z,29.81
2023-06-13T09:56:21.938Z,29.76
2023-06-13T09:58:52.892Z,29.78
2023-06-13T10:01:21.651Z,29.80
2023-06-13T10:03:50.015Z,29.84
2023-06-13T10:06:18.426Z,29.75
2023-06-13T10:08:49.974Z,29.73
2023-06-13T10:11:24.746Z,29.62
2023-06-13T10:14:03.502Z,29.68
2023-06-13T10:16:37.184Z,29.71
2023-06-13T10:19:07.295Z,29.73
2023-06-13T10:21:48.100Z,29.68
2023-06-13T10:24:22.195Z,29.64
2023-06-13T10:26:56.914Z,29.60
2023-06-13T10:29:49.613Z,29.49
2023-06-13T10:32:18.031Z,29.48
2023-06-13T10:35:10.044Z,29.43
2023-06-13T10:37:58.728Z,29.42
2023-06-13T10:40:38.683Z,29.41
2023-06-13T10:43:21.342Z,29.42
2023-06-13T10:45:51.332Z,29.44
2023-06-13T10:48:53.951Z,29.41
2023-06-13T10:51:24.230Z,29.45
2023-06-13T10:54:07.610Z,29.39
2023-06-13T10:56:40.760Z,29.44
2023-06-13T10:59:18.907Z,29.48
2023-06-13T11:01:47.226Z,29.54
2023-06-13T11:04:23.506Z,29.57
2023-06-13T11:06:55.907Z,29.56
2023-06-13T11:09:26.670Z,29.50
2023-06-13T11:11:57.537Z,29.51
2023-06-13T11:14:29.034Z,29.47
2023-06-13T11:16:57.036Z,29.37
2023-06-13T11:19:28.368Z,29.35
2023-06-13T11:22:06.791Z,29.30
2023-06-13T11:24:36.916Z,29.20
2023-06-13T11:27:06.127Z,28.99
2023-06-13T11:29:35.063Z,28.76
2023-06-13T11:32:06.099Z,28.73
2023-06-13T11:34:44.252Z,28.70
2023-06-13T11:37:26.650Z,28.65
2023-06-13T11:42:31.770Z,28.53
2023-06-13T11:45:02.707Z,28.50
2023-06-13T11:47:32.830Z,28.42
2023-06-13T11:50:01.417Z,28.39
2023-06-13T11:52:32.835Z,28.33
2023-06-13T11:55:01.200Z,28.35
2023-06-13T11:57:50.810Z,28.23
2023-06-13T12:00:23.291Z,28.22
2023-06-13T12:02:52.411Z,28.18
2023-06-13T12:05:21.610Z,28.08
2023-06-13T12:07:50.687Z,27.88
2023-06-13T12:10:19.779Z,27.69
2023-06-13T12:12:58.408Z,27.67
2023-06-13T12:15:27.996Z,27.55
2023-06-13T12:18:03.994Z,27.51
2023-06-13T12:20:47.201Z,27.51
2023-06-13T12:23:16.741Z,27.50
2023-06-13T12:25:46.805Z,27.48
2023-06-13T12:28:17.235Z,27.42
2023-06-13T12:30:51.264Z,27.44
2023-06-13T12:33:26.697Z,27.42
2023-06-13T12:35:59.026Z,27.40
2023-06-13T12:38:28.590Z,27.32
2023-06-13T12:40:59.835Z,27.23
2023-06-13T12:43:30.672Z,27.31
2023-06-13T12:46:00.989Z,27.29
2023-06-13T12:48:29.104Z,27.18
2023-06-13T12:51:01.774Z,27.12
2023-06-13T12:53:32.420Z,27.03
2023-06-13T12:56:03.679Z,26.90
2023-06-13T12:58:33.240Z,26.83
2023-06-13T13:01:07.673Z,26.80
2023-06-13T13:03:37.414Z,26.80
2023-06-13T13:06:05.762Z,26.80
2023-06-13T13:08:35.988Z,26.66
2023-06-13T13:11:04.901Z,26.63
2023-06-13T13:13:32.776Z,26.57
2023-06-13T13:16:01.265Z,26.55
2023-06-13T13:18:29.517Z,26.59
2023-06-13T13:20:57.773Z,26.55
2023-06-13T13:23:25.941Z,26.58
2023-06-13T13:25:54.229Z,26.63
2023-06-13T13:28:22.084Z,26.70
2023-06-13T13:31:00.868Z,26.37
2023-06-13T13:33:30.534Z,26.27
2023-06-13T13:35:59.014Z,26.18
2023-06-13T13:38:27.180Z,26.05
2023-06-13T13:40:55.536Z,25.90
2023-06-13T13:43:24.629Z,25.81
2023-06-13T13:45:52.763Z,25.62
2023-06-13T13:48:21.134Z,25.57
2023-06-13T13:50:50.321Z,25.45
2023-06-13T13:53:18.994Z,25.35
2023-06-13T13:55:47.567Z,25.15
2023-06-13T13:58:18.270Z,24.99
2023-06-13T14:04:00.450Z,24.57
2023-06-13T14:06:31.633Z,24.48
2023-06-13T14:09:02.730Z,24.50
2023-06-13T14:11:34.707Z,24.61
2023-06-13T14:14:02.831Z,24.72
2023-06-13T14:16:31.270Z,24.66
2023-06-13T14:19:00.187Z,24.62
2023-06-13T14:21:29.745Z,24.67
2023-06-13T14:24:00.100Z,24.70
2023-06-13T14:26:29.015Z,24.74
2023-06-13T14:28:57.143Z,24.85
2023-06-13T14:31:25.833Z,24.88
2023-06-13T14:33:54.038Z,24.89
2023-06-13T14:36:23.069Z,24.91
2023-06-13T14:38:52.440Z,24.87
2023-06-13T14:41:21.186Z,24.81
2023-06-13T14:43:49.625Z,24.79
2023-06-13T14:46:17.928Z,24.76
2023-06-13T14:48:46.102Z,24.78
2023-06-13T14:51:14.994Z,24.78
2023-06-13T14:53:43.104Z,24.79
2023-06-13T14:56:11.929Z,24.78
2023-06-13T14:58:39.864Z,24.74
2023-06-13T15:01:08.764Z,24.72
2023-06-13T15:03:40.603Z,24.66
2023-06-13T15:06:08.994Z,24.67
2023-06-13T15:08:38.425Z,24.59
2023-06-13T15:11:09.668Z,24.56
2023-06-13T15:13:38.363Z,24.59
2023-06-13T15:16:08.750Z,24.55
2023-06-13T15:18:38.057Z,24.54
2023-06-13T15:21:06.822Z,24.62
2023-06-13T15:23:35.260Z,24.59
2023-06-13T15:26:05.074Z,24.61
2023-06-13T15:28:33.117Z,24.65
2023-06-13T15:31:01.378Z,24.66
2023-06-13T15:33:33.217Z,24.66
2023-06-13T15:36:04.449Z,24.69
2023-06-13T15:38:32.654Z,24.60
2023-06-13T15:41:01.049Z,24.56
2023-06-13T15:43:29.008Z,24.64
2023-06-13T15:45:57.937Z,24.62
2023-06-13T15:48:25.912Z,24.63
2023-06-13T15:50:54.152Z,24.66
2023-06-13T15:53:22.255Z,24.64
2023-06-13T15:55:50.910Z,24.54
2023-06-13T15:58:18.999Z,24.43
2023-06-13T16:00:47.527Z,24.36
2023-06-13T16:03:15.789Z,24.34
2023-06-13T16:05:45.432Z,24.28
2023-06-13T16:08:13.750Z,24.18
2023-06-13T16:10:43.002Z,24.10
2023-06-13T16:13:10.902Z,23.98
2023-06-13T16:15:39.479Z,23.99
2023-06-13T16:18:07.655Z,24.05
2023-06-13T16:20:36.052Z,23.97
2023-06-13T16:23:04.123Z,23.87
2023-06-13T16:25:33.065Z,23.84
2023-06-13T16:28:01.885Z,23.67
2023-06-13T16:30:30.548Z,23.58
2023-06-13T16:32:59.364Z,23.56
2023-06-13T16:35:28.455Z,23.44
2023-06-13T16:37:59.102Z,23.37
2023-06-13T16:40:28.114Z,23.31
2023-06-13T16:42:58.202Z,23.29
2023-06-13T16:45:26.912Z,23.23
2023-06-13T16:47:54.989Z,23.14
2023-06-13T16:50:25.332Z,23.22
2023-06-13T16:52:55.430Z,23.16
2023-06-13T16:55:24.689Z,23.01
2023-06-13T16:57:55.080Z,22.84
2023-06-13T17:00:23.398Z,22.89
2023-06-13T17:02:52.595Z,22.86
2023-06-13T17:05:20.943Z,22.76
2023-06-13T17:07:49.367Z,22.60
2023-06-13T17:10:21.254Z,22.60
2023-06-13T17:12:49.908Z,22.64
2023-06-13T17:15:18.491Z,22.52
2023-06-13T17:17:47.327Z,22.49
2023-06-13T17:20:15.333Z,22.46
2023-06-13T17:22:45.009Z,22.55
2023-06-13T17:25:13.286Z,22.58
2023-06-13T17:27:42.335Z,22.51
2023-06-13T17:30:11.010Z,22.38
2023-06-13T17:32:39.722Z,22.46
2023-06-13T17:35:08.299Z,22.52
2023-06-13T17:37:37.023Z,22.48
2023-06-13T17:40:07.664Z,22.49
2023-06-13T17:42:36.424Z,22.51
2023-06-13T17:45:04.930Z,22.52
2023-06-13T17:47:33.751Z,22.47
2023-06-13T17:50:01.958Z,22.51
2023-06-13T17:52:33.077Z,22.48
2023-06-13T17:55:02.018Z,22.53
2023-06-13T17:57:34.910Z,22.46
2023-06-13T18:00:04.416Z,22.47
2023-06-13T18:02:42.916Z,22.50
2023-06-13T18:05:11.591Z,22.43
2023-06-13T18:07:41.538Z,22.43
2023-06-13T18:10:09.795Z,22.31
2023-06-13T18:12:38.596Z,22.23
2023-06-13T18:15:07.439Z,22.20
2023-06-13T18:17:36.476Z,22.21
2023-06-13T18:20:06.114Z,22.30
2023-06-13T18:22:36.172Z,22.29
2023-06-13T18:25:04.917Z,22.30
2023-06-13T18:27:33.886Z,22.28
2023-06-13T18:30:02.177Z,22.25
2023-06-13T18:32:35.076Z,22.22
2023-06-13T18:35:03.842Z,22.13
2023-06-13T18:37:32.826Z,22.16
2023-06-13T18:40:01.723Z,22.16
2023-06-13T18:42:33.220Z,22.13
2023-06-13T18:45:01.578Z,22.05
2023-06-13T18:47:31.252Z,22.05
2023-06-13T18:49:59.591Z,22.02
2023-06-13T18:52:28.945Z,22.03
2023-06-13T18:54:57.618Z,22.02
2023-06-13T18:57:26.776Z,22.02
2023-06-13T18:59:55.065Z,21.99
2023-06-13T19:02:24.154Z,21.99
2023-06-13T19:04:55.149Z,21.87
2023-06-13T19:07:24.357Z,21.93
2023-06-13T19:09:52.887Z,21.93
2023-06-13T19:12:23.455Z,21.91
2023-06-13T19:14:54.096Z,21.99
2023-06-13T19:17:23.550Z,21.91
2023-06-13T19:19:52.110Z,21.99
2023-06-13T19:22:21.093Z,21.94
2023-06-13T19:24:49.646Z,21.93
2023-06-13T19:27:18.829Z,21.80
2023-06-13T19:29:47.313Z,21.87
2023-06-13T19:32:16.310Z,21.92
2023-06-13T19:34:44.992Z,21.93
2023-06-13T19:37:14.311Z,21.81
2023-06-13T19:45:53.579Z,21.80
2023-06-13T19:49:53.981Z,21.85
2023-06-13T19:57:11.145Z,21.79
2023-06-13T20:04:30.454Z,21.67
2023-06-13T20:07:50.342Z,21.76
2023-06-13T20:11:56.081Z,21.61
2023-06-13T20:26:29.168Z,21.70
2023-06-13T20:33:55.793Z,21.73
2023-06-13T20:37:14.372Z,21.70
2023-06-13T21:05:44.399Z,21.60
2023-06-13T21:08:38.211Z,21.56
2023-06-13T21:11:57.392Z,21.59
2023-06-13T21:14:51.484Z,21.60
2023-06-13T21:18:09.317Z,21.58
2023-06-13T21:26:36.346Z,21.49
2023-06-13T21:29:30.389Z,21.58
2023-06-13T21:32:48.522Z,21.50
2023-06-13T21:36:01.461Z,21.49
2023-06-13T21:38:55.658Z,21.48
2023-06-13T21:42:13.377Z,21.52
2023-06-13T21:45:07.703Z,21.49
2023-06-13T21:48:26.766Z,21.46
2023-06-13T22:26:59.097Z,21.18
2023-06-13T22:30:17.895Z,21.09
2023-06-13T22:32:47.112Z,21.08
2023-06-13T22:35:15.034Z,21.10
2023-06-13T22:37:43.418Z,21.17
2023-06-13T22:40:11.782Z,21.05
2023-06-13T22:42:42.082Z,21.14
2023-06-13T22:45:10.620Z,21.17
2023-06-13T22:47:39.226Z,21.21
2023-06-13T22:50:08.301Z,21.26
2023-06-13T22:52:41.021Z,21.21
2023-06-13T22:55:09.421Z,21.23
2023-06-13T22:57:38.802Z,21.25
2023-06-13T23:00:12.424Z,21.26
2023-06-13T23:02:42.837Z,21.32
2023-06-13T23:05:11.231Z,21.37
2023-06-13T23:07:39.792Z,21.31
2023-06-13T23:10:08.143Z,21.35
2023-06-13T23:12:37.362Z,21.33
2023-06-13T23:15:06.135Z,21.30
2023-06-13T23:17:37.078Z,21.26
2023-06-13T23:20:06.730Z,21.28
2023-06-13T23:22:35.320Z,21.36
2023-06-13T23:25:04.215Z,21.30
2023-06-13T23:27:33.384Z,21.35
2023-06-13T23:30:06.267Z,21.30
2023-06-13T23:32:38.857Z,21.26
2023-06-13T23:35:09.444Z,21.30
2023-06-13T23:37:43.829Z,21.31
2023-06-13T23:40:15.256Z,21.25
2023-06-13T23:42:54.699Z,21.27
2023-06-13T23:45:23.206Z,21.14
2023-06-13T23:48:14.387Z,21.16
2023-06-13T23:50:46.360Z,21.29
2023-06-13T23:53:27.443Z,21.25
2023-06-13T23:55:56.318Z,21.29
2023-06-13T23:58:39.649Z,21.32
